Zap, North Dakota
Current Conditions -  °F | °C
As of 4:55 PM on Wednesday 22 Oct 2014 (Local Time) from KHZE Reporting Station
Broken Clouds Broken Clouds  
Wind Chill: 64°   Ceiling: 7000
Heat Index: 64°   Visibility: 10mi
Dew Point: 36°   Wind: 14mph
Humidity: 34%   Direction: 280°W
Pressure: 29.84"   Gusts: 22mph
Location:  47.29°N, 101.92°W
Report Text: KHZE 222255Z AUTO 28012G19KT 10SM BKN070 18/02 A2984 RMK AO2
Loading
Personal Weather Stations






























Interactive Weather Map
Tropical Storm Tracking
New forecast layout! Learn more

10-Day Weather Forecast

Advertisements
Track Severe Weather on mobile